Time;durP1;ratioP1;P1;durP2;ratioP2;P2;SDS_P1;SDS_P2;PMS_P1;PMS_P2;Temp;Humidity;BMP_temperature;BMP_pressure;BME280_temperature;BME280_humidity;BME280_pressure;Samples;Min_cycle;Max_cycle;Signal;HPM_P1;HPM_P2
2023/12/01 00:02:24;;;;;;;1.70;1.60;;;;;;;2.07;nan;-23873.59;4955166;29;20222;-63
2023/12/01 00:04:49;;;;;;;1.87;1.77;;;;;;;1.88;nan;-23868.16;4955122;29;20224;-64
2023/12/01 00:07:15;;;;;;;2.57;2.10;;;;;;;2.06;nan;-23873.47;4954864;29;20178;-64
2023/12/01 00:09:40;;;;;;;4.33;2.87;;;;;;;2.05;nan;-23873.03;4954492;29;20237;-63
2023/12/01 00:12:06;;;;;;;3.63;2.57;;;;;;;1.98;nan;-23871.19;4954780;28;20170;-66
2023/12/01 00:14:31;;;;;;;4.23;2.93;;;;;;;1.90;nan;-23868.88;4955822;29;20600;-64
2023/12/01 00:16:57;;;;;;;3.23;2.83;;;;;;;2.04;nan;-23872.88;4955139;29;20186;-63
2023/12/01 00:19:22;;;;;;;3.70;3.07;;;;;;;1.88;nan;-23868.16;4954825;29;20550;-64
2023/12/01 00:21:48;;;;;;;2.83;2.10;;;;;;;1.88;nan;-23868.31;4954855;29;20194;-63
2023/12/01 00:24:14;;;;;;;3.50;3.20;;;;;;;1.78;nan;-23865.59;4954776;29;20194;-63
2023/12/01 00:26:39;;;;;;;2.70;2.50;;;;;;;1.85;nan;-23867.47;4954455;29;20232;-63
2023/12/01 00:29:05;;;;;;;3.13;2.93;;;;;;;2.00;nan;-23871.75;4954776;28;20205;-63
2023/12/01 00:31:30;;;;;;;2.43;1.93;;;;;;;2.06;nan;-23873.31;4954506;29;20172;-63
2023/12/01 00:33:55;;;;;;;2.77;2.47;;;;;;;1.84;nan;-23867.19;4954815;28;20253;-65
2023/12/01 00:36:21;;;;;;;2.47;2.27;;;;;;;1.99;nan;-23871.31;4954531;29;20178;-65
2023/12/01 00:38:46;;;;;;;2.53;2.37;;;;;;;1.84;nan;-23867.03;4954494;28;20178;-65
2023/12/01 00:41:12;;;;;;;4.03;2.90;;;;;;;1.67;nan;-23862.47;4954133;29;20336;-65
2023/12/01 00:43:37;;;;;;;2.10;1.90;;;;;;;1.62;nan;-23861.03;4954546;29;20170;-63
2023/12/01 00:46:04;;;;;;;5.33;2.63;;;;;;;1.83;nan;-23866.88;4954612;29;20626;-65
2023/12/01 00:48:30;;;;;;;1.73;1.63;;;;;;;1.47;nan;-23856.59;4954656;29;20181;-64
2023/12/01 00:50:56;;;;;;;2.50;2.27;;;;;;;1.34;nan;-23853.16;4954649;29;20258;-63
2023/12/01 00:53:21;;;;;;;4.03;2.00;;;;;;;1.64;nan;-23861.59;4954406;29;20269;-63
2023/12/01 00:55:47;;;;;;;8.30;2.77;;;;;;;1.54;nan;-23858.75;4954072;29;20210;-63
2023/12/01 00:58:12;;;;;;;2.10;2.00;;;;;;;1.62;nan;-23860.88;4936647;29;20182;-64
2023/12/01 01:00:38;;;;;;;1.93;1.80;;;;;;;1.53;nan;-23858.31;4954277;28;20189;-63
2023/12/01 01:03:03;;;;;;;3.07;2.73;;;;;;;1.97;nan;-23870.75;4953412;28;20681;-64
2023/12/01 01:05:29;;;;;;;1.97;1.83;;;;;;;1.52;nan;-23858.03;4954214;28;20186;-64
2023/12/01 01:07:54;;;;;;;2.00;1.90;;;;;;;1.47;nan;-23856.59;4954153;29;20193;-63
2023/12/01 01:10:19;;;;;;;4.13;2.77;;;;;;;1.68;nan;-23862.59;4953916;29;20519;-64
2023/12/01 01:12:45;;;;;;;3.70;2.30;;;;;;;1.48;nan;-23857.03;4953793;29;20221;-63
2023/12/01 01:15:10;;;;;;;2.03;1.93;;;;;;;1.73;nan;-23864.16;4954217;29;20186;-63
2023/12/01 01:17:36;;;;;;;2.60;2.40;;;;;;;1.80;nan;-23865.88;4936795;29;20178;-64
2023/12/01 01:20:02;;;;;;;3.70;2.90;;;;;;;1.75;nan;-23864.59;4954007;28;20577;-63
2023/12/01 01:22:27;;;;;;;2.10;1.93;;;;;;;1.77;nan;-23865.31;4953757;29;20701;-63
2023/12/01 01:24:53;;;;;;;1.87;1.77;;;;;;;1.80;nan;-23865.88;4953445;29;20174;-63
2023/12/01 01:27:19;;;;;;;1.60;1.50;;;;;;;1.54;nan;-23858.59;4953539;29;20277;-64
2023/12/01 01:29:44;;;;;;;2.50;1.87;;;;;;;1.66;nan;-23862.19;4936682;29;20193;-64
2023/12/01 01:32:13;;;;;;;2.40;2.20;;;;;;;1.79;nan;-23865.75;4953396;29;20566;-62
2023/12/01 01:34:38;;;;;;;1.83;1.73;;;;;;;1.58;nan;-23859.75;4953677;29;20179;-63
2023/12/01 01:37:04;;;;;;;2.13;2.00;;;;;;;1.59;nan;-23860.16;4936128;29;20204;-64
2023/12/01 01:39:29;;;;;;;2.40;2.20;;;;;;;1.61;nan;-23860.75;4952999;29;20240;-63
2023/12/01 01:41:56;;;;;;;3.50;2.50;;;;;;;1.77;nan;-23865.31;4953066;28;20689;-63
2023/12/01 01:44:22;;;;;;;2.60;2.40;;;;;;;1.72;nan;-23863.88;4953634;29;20281;-63
2023/12/01 01:46:50;;;;;;;2.60;2.13;;;;;;;1.55;nan;-23858.88;4953856;29;20220;-64
2023/12/01 01:49:16;;;;;;;2.97;2.70;;;;;;;1.70;nan;-23863.31;4953463;29;20611;-63
2023/12/01 01:51:42;;;;;;;2.47;2.23;;;;;;;1.55;nan;-23859.03;4953133;29;20568;-63
2023/12/01 01:54:08;;;;;;;1.77;1.67;;;;;;;1.74;nan;-23864.47;4953159;29;20701;-63
2023/12/01 01:56:34;;;;;;;3.03;2.73;;;;;;;1.70;nan;-23863.16;4953376;29;20201;-61
2023/12/01 01:59:00;;;;;;;6.00;2.43;;;;;;;1.61;nan;-23860.75;4953294;29;20214;-64
2023/12/01 02:01:25;;;;;;;2.50;2.30;;;;;;;1.74;nan;-23864.47;4935595;29;20202;-64
2023/12/01 02:03:52;;;;;;;2.00;1.67;;;;;;;1.60;nan;-23860.47;4953040;29;20261;-63
2023/12/01 02:06:19;;;;;;;3.03;2.63;;;;;;;1.47;nan;-23856.59;4953179;29;20287;-64
2023/12/01 02:08:45;;;;;;;2.70;2.50;;;;;;;1.51;nan;-23857.88;4953259;29;20178;-64
2023/12/01 02:11:13;;;;;;;2.57;2.37;;;;;;;1.82;nan;-23866.47;4953476;29;20542;-63
2023/12/01 02:13:39;;;;;;;2.27;2.17;;;;;;;1.41;nan;-23855.03;4952663;28;20201;-63
2023/12/01 02:16:07;;;;;;;3.17;2.20;;;;;;;1.52;nan;-23858.03;4952539;29;20194;-63
2023/12/01 02:18:35;;;;;;;1.70;1.60;;;;;;;1.50;nan;-23857.59;4953214;29;20188;-64
2023/12/01 02:21:01;;;;;;;4.67;2.50;;;;;;;1.86;nan;-23867.59;4952751;29;20638;-64
2023/12/01 02:23:26;;;;;;;1.70;1.60;;;;;;;1.40;nan;-23854.59;4952720;29;20261;-64
2023/12/01 02:25:52;;;;;;;1.83;1.70;;;;;;;1.71;nan;-23863.47;4953161;29;20715;-64
2023/12/01 02:28:18;;;;;;;4.47;2.50;;;;;;;1.50;nan;-23857.59;4952961;29;20689;-65
2023/12/01 02:30:51;;;;;;;1.97;1.83;;;;;;;1.66;nan;-23862.19;4953023;29;20253;-65
2023/12/01 02:33:18;;;;;;;3.20;2.93;;;;;;;1.53;nan;-23858.44;4952726;29;20158;-64
2023/12/01 02:35:45;;;;;;;2.43;2.27;;;;;;;1.71;nan;-23863.59;4952672;29;20250;-63
2023/12/01 02:38:10;;;;;;;2.00;1.90;;;;;;;1.68;nan;-23862.75;4952565;29;20178;-64
2023/12/01 02:40:42;;;;;;;2.03;1.93;;;;;;;1.51;nan;-23857.75;4952731;29;20231;-64
2023/12/01 02:43:08;;;;;;;1.80;1.70;;;;;;;1.67;nan;-23862.47;4952622;29;20201;-64
2023/12/01 02:45:33;;;;;;;2.00;1.90;;;;;;;1.52;nan;-23858.03;4952913;28;20178;-63
2023/12/01 02:47:59;;;;;;;2.90;2.23;;;;;;;1.69;nan;-23862.88;4952689;29;20214;-63
2023/12/01 02:50:24;;;;;;;2.17;2.07;;;;;;;1.77;nan;-23865.16;4953532;29;20245;-64
2023/12/01 02:52:50;;;;;;;3.00;2.37;;;;;;;1.46;nan;-23856.47;4953114;29;20273;-63
2023/12/01 02:55:15;;;;;;;1.63;1.53;;;;;;;1.61;nan;-23860.75;4953184;29;20269;-62
2023/12/01 02:57:42;;;;;;;2.53;2.33;;;;;;;1.57;nan;-23859.59;4952672;29;20229;-63
2023/12/01 03:00:13;;;;;;;2.50;1.97;;;;;;;1.72;nan;-23863.75;4952572;29;20186;-63
2023/12/01 03:02:41;;;;;;;3.20;1.90;;;;;;;1.65;nan;-23861.88;4952383;29;20209;-64
2023/12/01 03:05:08;;;;;;;2.60;2.40;;;;;;;1.59;nan;-23860.03;4952180;29;20607;-63
2023/12/01 03:07:35;;;;;;;2.53;2.37;;;;;;;1.83;nan;-23866.75;4952407;28;20240;-64
2023/12/01 03:10:01;;;;;;;3.27;2.97;;;;;;;1.53;nan;-23858.44;4952243;29;20175;-64
2023/12/01 03:12:26;;;;;;;1.97;1.87;;;;;;;1.59;nan;-23860.16;4951092;28;20186;-64
2023/12/01 03:14:51;;;;;;;1.97;1.87;;;;;;;1.73;nan;-23864.16;4952178;29;20245;-64
2023/12/01 03:17:17;;;;;;;1.80;1.70;;;;;;;1.63;nan;-23861.16;4952125;29;20693;-64
2023/12/01 03:19:45;;;;;;;1.70;1.60;;;;;;;1.59;nan;-23860.16;4952665;29;20213;-64
2023/12/01 03:22:11;;;;;;;2.50;2.30;;;;;;;1.55;nan;-23859.03;4952010;28;20197;-63
2023/12/01 03:24:36;;;;;;;2.13;2.03;;;;;;;1.61;nan;-23860.59;4954367;28;20174;-62
2023/12/01 03:27:03;;;;;;;2.67;2.50;;;;;;;1.56;nan;-23859.16;4955117;29;20221;-63
2023/12/01 03:29:28;;;;;;;1.30;1.20;;;;;;;1.61;nan;-23860.75;4955574;28;20197;-64
2023/12/01 03:31:53;;;;;;;2.70;2.03;;;;;;;1.66;nan;-23862.19;4955581;28;20186;-63
2023/12/01 03:34:19;;;;;;;2.00;1.90;;;;;;;1.84;nan;-23867.19;4955076;29;20186;-64
2023/12/01 03:36:44;;;;;;;2.23;2.13;;;;;;;1.64;nan;-23861.47;4955116;28;20221;-63
2023/12/01 03:39:10;;;;;;;2.00;1.87;;;;;;;1.63;nan;-23861.16;4955381;29;20184;-63
2023/12/01 03:41:35;;;;;;;4.57;2.73;;;;;;;1.86;nan;-23867.59;4955144;29;20209;-64
2023/12/01 03:44:00;;;;;;;2.27;2.10;;;;;;;1.70;nan;-23863.31;4954279;29;20181;-64
2023/12/01 03:46:26;;;;;;;1.87;1.77;;;;;;;1.90;nan;-23868.88;4954717;28;20185;-64
2023/12/01 03:48:51;;;;;;;1.87;1.77;;;;;;;1.74;nan;-23864.47;4954766;29;20677;-65
2023/12/01 03:51:17;;;;;;;2.07;1.87;;;;;;;1.94;nan;-23869.88;4937574;29;20624;-63
2023/12/01 03:53:42;;;;;;;3.57;1.80;;;;;;;1.77;nan;-23865.16;4954495;29;20222;-64
2023/12/01 03:56:08;;;;;;;2.50;2.30;;;;;;;1.83;nan;-23866.75;4954811;29;20267;-63
2023/12/01 03:58:33;;;;;;;2.23;2.03;;;;;;;2.09;nan;-23874.16;4954961;29;20668;-63
2023/12/01 04:00:59;;;;;;;1.67;1.57;;;;;;;1.96;nan;-23870.59;4955346;29;20178;-62
2023/12/01 04:03:24;;;;;;;2.20;2.10;;;;;;;1.78;nan;-23865.59;4954569;29;20249;-63
2023/12/01 04:05:50;;;;;;;1.53;1.43;;;;;;;1.96;nan;-23870.47;4954945;29;20563;-64
2023/12/01 04:08:16;;;;;;;1.60;1.50;;;;;;;1.80;nan;-23865.88;4955125;29;20216;-64
2023/12/01 04:10:42;;;;;;;3.97;2.53;;;;;;;2.01;nan;-23871.88;4955392;29;20174;-64
2023/12/01 04:13:08;;;;;;;1.77;1.67;;;;;;;2.00;nan;-23871.59;4955252;29;20243;-64
2023/12/01 04:15:36;;;;;;;1.90;1.73;;;;;;;1.86;nan;-23867.59;4955196;29;20672;-63
2023/12/01 04:18:06;;;;;;;2.23;2.07;;;;;;;1.95;nan;-23870.16;4954051;29;20185;-64
2023/12/01 04:20:35;;;;;;;1.90;1.80;;;;;;;2.17;nan;-23876.47;4946946;29;20170;-63
2023/12/01 04:23:11;;;;;;;1.40;1.40;;;;;;;1.82;nan;-23866.47;4954918;28;20216;-64
2023/12/01 04:25:40;;;;;;;3.40;3.00;;;;;;;1.68;nan;-23862.75;4954788;29;20185;-64
2023/12/01 04:28:06;;;;;;;1.70;1.60;;;;;;;1.82;nan;-23866.47;4954851;29;20186;-64
2023/12/01 04:30:35;;;;;;;2.00;1.90;;;;;;;1.67;nan;-23862.47;4954683;29;20170;-64
2023/12/01 04:33:00;;;;;;;2.13;1.97;;;;;;;1.89;nan;-23868.59;4954977;29;20181;-63
2023/12/01 04:35:32;;;;;;;1.63;1.53;;;;;;;1.76;nan;-23864.88;4954305;28;20640;-63
2023/12/01 04:37:59;;;;;;;2.63;2.20;;;;;;;1.52;nan;-23858.16;4954983;29;20181;-64
2023/12/01 04:40:27;;;;;;;2.97;1.70;;;;;;;1.87;nan;-23867.88;4954571;29;20197;-64
2023/12/01 04:42:57;;;;;;;2.37;2.07;;;;;;;1.72;nan;-23863.75;4954543;29;20229;-64
2023/12/01 04:45:25;;;;;;;2.47;1.80;;;;;;;1.63;nan;-23861.31;4954947;29;20178;-64
2023/12/01 04:47:51;;;;;;;1.70;1.60;;;;;;;1.96;nan;-23870.59;4954604;29;20205;-64
2023/12/01 04:50:19;;;;;;;1.97;1.67;;;;;;;1.77;nan;-23865.16;4954525;28;20204;-64
2023/12/01 04:52:46;;;;;;;2.43;2.00;;;;;;;1.89;nan;-23868.59;4954368;28;20177;-65
2023/12/01 04:55:14;;;;;;;1.80;1.70;;;;;;;1.42;nan;-23855.16;4954012;29;20275;-64
2023/12/01 04:57:40;;;;;;;1.83;1.73;;;;;;;1.39;nan;-23854.44;4953958;29;20646;-64
2023/12/01 05:00:18;;;;;;;3.57;2.33;;;;;;;1.30;nan;-23852.03;4954329;29;20614;-65
2023/12/01 05:02:48;;;;;;;1.70;1.60;;;;;;;1.42;nan;-23855.31;4954478;29;20198;-65
2023/12/01 05:05:18;;;;;;;2.27;2.00;;;;;;;1.25;nan;-23850.44;4954356;29;20170;-64
2023/12/01 05:07:44;;;;;;;1.97;1.87;;;;;;;1.05;nan;-23844.88;4954190;29;20666;-63
2023/12/01 05:10:14;;;;;;;1.93;1.83;;;;;;;1.34;nan;-23853.16;4953980;29;20205;-64
2023/12/01 05:12:41;;;;;;;1.60;1.50;;;;;;;1.25;nan;-23850.59;4954329;29;20575;-65
2023/12/01 05:15:15;;;;;;;1.47;1.40;;;;;;;1.38;nan;-23854.03;4954216;29;20278;-63
2023/12/01 05:17:44;;;;;;;2.17;2.07;;;;;;;1.15;nan;-23847.59;4954321;29;20231;-62
2023/12/01 05:20:15;;;;;;;1.80;1.70;;;;;;;1.55;nan;-23859.03;4954188;29;20170;-62
2023/12/01 05:22:46;;;;;;;3.17;1.90;;;;;;;1.24;nan;-23850.31;4953578;29;20586;-64
2023/12/01 05:25:15;;;;;;;1.70;1.60;;;;;;;1.45;nan;-23856.03;4953860;29;20163;-62
2023/12/01 05:27:44;;;;;;;2.67;2.47;;;;;;;1.56;nan;-23859.31;4953933;29;20272;-63
2023/12/01 05:30:15;;;;;;;2.63;2.37;;;;;;;1.37;nan;-23853.88;4953044;29;20274;-64
2023/12/01 05:32:45;;;;;;;2.47;2.27;;;;;;;1.63;nan;-23861.31;4953626;29;20217;-65
2023/12/01 05:35:12;;;;;;;1.60;1.50;;;;;;;1.40;nan;-23854.75;4953583;29;20162;-65
2023/12/01 05:37:47;;;;;;;1.57;1.47;;;;;;;1.38;nan;-23854.03;4953313;29;20209;-64
2023/12/01 05:40:24;;;;;;;1.30;1.30;;;;;;;1.76;nan;-23864.88;4953543;29;20162;-64
2023/12/01 05:42:52;;;;;;;2.70;2.00;;;;;;;1.66;nan;-23862.03;4953570;29;20209;-65
2023/12/01 05:45:19;;;;;;;2.00;1.90;;;;;;;1.71;nan;-23863.47;4953303;29;20548;-64
2023/12/01 05:47:46;;;;;;;1.83;1.50;;;;;;;1.72;nan;-23863.75;4952124;28;20812;-65
2023/12/01 05:50:13;;;;;;;2.33;2.13;;;;;;;1.71;nan;-23863.59;4953331;29;20185;-64
2023/12/01 05:52:41;;;;;;;2.97;2.33;;;;;;;1.73;nan;-23864.16;4953353;29;20186;-65
2023/12/01 05:55:14;;;;;;;1.93;1.83;;;;;;;1.56;nan;-23859.31;4953295;29;20752;-64
2023/12/01 05:57:44;;;;;;;3.83;2.23;;;;;;;1.81;nan;-23866.16;4953536;29;20212;-64
2023/12/01 06:00:12;;;;;;;3.27;2.97;;;;;;;1.60;nan;-23860.31;4953119;29;20174;-64
2023/12/01 06:02:45;;;;;;;2.20;1.80;;;;;;;1.61;nan;-23860.59;4953316;29;20205;-63
2023/12/01 06:05:12;;;;;;;1.97;1.87;;;;;;;1.99;nan;-23871.47;4953254;29;20186;-65
2023/12/01 06:07:44;;;;;;;1.60;1.50;;;;;;;2.02;nan;-23872.31;4953025;29;20676;-64
2023/12/01 06:10:13;;;;;;;2.40;2.20;;;;;;;1.76;nan;-23865.03;4953564;29;20163;-64
2023/12/01 06:12:39;;;;;;;2.30;1.70;;;;;;;1.87;nan;-23868.03;4950998;29;20621;-66
2023/12/01 06:15:09;;;;;;;2.13;2.00;;;;;;;2.11;nan;-23874.75;4951241;28;20193;-65
2023/12/01 06:17:36;;;;;;;1.33;1.30;;;;;;;2.01;nan;-23872.03;4951603;28;20186;-64
2023/12/01 06:20:02;;;;;;;2.23;2.03;;;;;;;2.32;nan;-23880.75;4948106;29;20182;-64
2023/12/01 06:22:28;;;;;;;1.70;1.60;;;;;;;2.40;nan;-23883.03;4951277;29;20225;-65
2023/12/01 06:24:53;;;;;;;2.63;2.23;;;;;;;2.43;nan;-23883.75;4941445;29;20665;-64
2023/12/01 06:27:19;;;;;;;2.00;1.90;;;;;;;2.44;nan;-23884.16;4950033;28;20186;-63
2023/12/01 06:29:44;;;;;;;1.73;1.63;;;;;;;2.67;nan;-23890.59;4951117;29;20182;-64
2023/12/01 06:32:10;;;;;;;1.83;1.73;;;;;;;2.32;nan;-23880.75;4950483;29;20278;-66
2023/12/01 06:34:36;;;;;;;1.80;1.70;;;;;;;2.81;nan;-23894.59;4951453;29;20186;-68
2023/12/01 06:37:01;;;;;;;2.20;2.00;;;;;;;2.91;nan;-23897.28;4946480;28;20189;-65
2023/12/01 06:39:27;;;;;;;1.50;1.40;;;;;;;2.63;nan;-23889.44;4950547;28;20185;-64
2023/12/01 06:41:53;;;;;;;1.90;1.80;;;;;;;2.97;nan;-23899.00;4950620;28;20246;-65
2023/12/01 06:44:19;;;;;;;2.00;1.90;;;;;;;2.82;nan;-23894.72;4950620;29;20209;-65
2023/12/01 06:46:45;;;;;;;1.50;1.40;;;;;;;2.69;nan;-23891.16;4951096;29;20692;-65
2023/12/01 06:49:12;;;;;;;1.70;1.60;;;;;;;2.99;nan;-23899.56;4950690;28;20197;-65
2023/12/01 06:51:38;;;;;;;1.80;1.70;;;;;;;3.18;nan;-23905.00;4950709;28;20786;-65
2023/12/01 06:54:04;;;;;;;1.93;1.83;;;;;;;3.03;nan;-23900.72;4949571;28;20670;-66
2023/12/01 06:56:30;;;;;;;2.10;1.97;;;;;;;3.15;nan;-23904.00;4951188;29;20269;-65
2023/12/01 06:58:56;;;;;;;1.60;1.50;;;;;;;3.23;nan;-23906.44;4953639;28;20562;-65
2023/12/01 07:01:21;;;;;;;1.63;1.53;;;;;;;3.60;nan;-23916.69;4955979;29;20186;-64
2023/12/01 07:03:48;;;;;;;2.03;1.83;;;;;;;3.71;nan;-23919.81;4955818;29;20181;-64
2023/12/01 07:06:14;;;;;;;2.90;1.90;;;;;;;3.52;nan;-23914.53;4956266;29;20241;-65
2023/12/01 07:08:40;;;;;;;1.83;1.70;;;;;;;3.68;nan;-23919.09;4956108;29;20173;-64
2023/12/01 07:11:07;;;;;;;1.80;1.70;;;;;;;3.90;nan;-23925.38;4955951;29;20163;-65
2023/12/01 07:13:33;;;;;;;2.43;2.23;;;;;;;3.78;nan;-23921.97;4956021;29;20170;-67
2023/12/01 07:15:58;;;;;;;2.17;2.07;;;;;;;4.01;nan;-23928.38;4955837;29;20178;-66
2023/12/01 07:18:26;;;;;;;2.90;2.67;;;;;;;4.05;nan;-23929.50;4956173;29;20177;-65
2023/12/01 07:20:51;;;;;;;1.30;1.30;;;;;;;3.96;nan;-23926.94;4956348;29;20170;-66
2023/12/01 07:23:20;;;;;;;2.57;2.37;;;;;;;3.99;nan;-23927.81;4955969;29;20716;-68
2023/12/01 07:25:50;;;;;;;3.60;2.60;;;;;;;4.23;nan;-23934.63;4956022;29;20189;-65
2023/12/01 07:28:15;;;;;;;2.73;2.53;;;;;;;4.27;nan;-23935.78;4956311;29;20159;-68
2023/12/01 07:30:41;;;;;;;1.93;1.83;;;;;;;4.32;nan;-23937.06;4956177;29;20178;-66
2023/12/01 07:33:09;;;;;;;1.70;1.60;;;;;;;4.45;nan;-23940.75;4957585;29;20162;-65
2023/12/01 07:35:34;;;;;;;2.50;2.27;;;;;;;4.51;nan;-23942.47;4938090;29;20192;-65
2023/12/01 07:38:00;;;;;;;2.10;2.00;;;;;;;4.97;nan;-23955.41;4955163;29;20285;-65
2023/12/01 07:40:27;;;;;;;1.83;1.73;;;;;;;4.97;nan;-23955.28;4956184;29;20599;-64
2023/12/01 07:42:55;;;;;;;2.20;2.10;;;;;;;5.06;nan;-23957.97;4955782;29;20294;-65
2023/12/01 07:45:21;;;;;;;2.07;1.57;;;;;;;4.64;nan;-23946.03;4955646;29;20205;-64
2023/12/01 07:47:49;;;;;;;2.90;2.70;;;;;;;5.27;nan;-23963.94;4955525;29;20258;-67
2023/12/01 07:50:15;;;;;;;2.50;2.30;;;;;;;5.06;nan;-23957.97;4955524;29;20241;-63
2023/12/01 07:52:44;;;;;;;3.07;2.33;;;;;;;5.14;nan;-23960.25;4955355;29;20189;-66
2023/12/01 07:55:10;;;;;;;2.57;2.20;;;;;;;5.47;nan;-23969.34;4955529;29;20233;-64
2023/12/01 07:57:36;;;;;;;2.50;2.30;;;;;;;5.39;nan;-23967.06;4954971;29;20178;-64
2023/12/01 08:00:05;;;;;;;2.30;2.10;;;;;;;5.48;nan;-23969.63;4955193;29;20241;-66
2023/12/01 08:02:31;;;;;;;3.83;2.30;;;;;;;5.75;nan;-23977.31;4955364;29;20228;-65
2023/12/01 08:04:56;;;;;;;2.10;2.00;;;;;;;5.91;nan;-23981.88;4954794;29;20206;-64
2023/12/01 08:07:22;;;;;;;2.13;2.00;;;;;;;6.00;nan;-23984.28;4954772;28;20184;-64
2023/12/01 08:09:48;;;;;;;5.17;2.67;;;;;;;5.85;nan;-23980.16;4954287;28;20186;-65
2023/12/01 08:12:15;;;;;;;1.53;1.43;;;;;;;6.08;nan;-23986.56;4954770;29;20182;-66
2023/12/01 08:14:40;;;;;;;2.20;2.00;;;;;;;5.78;nan;-23978.16;4955110;29;20658;-65
2023/12/01 08:17:06;;;;;;;2.10;1.97;;;;;;;6.09;nan;-23986.84;4954995;29;20185;-65
2023/12/01 08:19:33;;;;;;;3.63;3.27;;;;;;;5.96;nan;-23983.28;4954849;29;20238;-64
2023/12/01 08:21:59;;;;;;;2.07;1.87;;;;;;;5.79;nan;-23978.44;4954754;29;20201;-64
2023/12/01 08:24:25;;;;;;;1.47;1.37;;;;;;;5.90;nan;-23981.56;4955264;29;20587;-65
2023/12/01 08:26:51;;;;;;;1.90;1.80;;;;;;;6.02;nan;-23984.97;4954969;28;20178;-64
2023/12/01 08:29:17;;;;;;;1.60;1.50;;;;;;;5.84;nan;-23979.88;4955146;29;20670;-65
2023/12/01 08:31:45;;;;;;;1.63;1.53;;;;;;;6.38;nan;-23993.22;4954950;29;20687;-66
2023/12/01 08:34:10;;;;;;;1.70;1.60;;;;;;;6.51;nan;-23996.91;4955387;28;20181;-63
2023/12/01 08:36:36;;;;;;;1.97;1.87;;;;;;;6.21;nan;-23988.53;4954570;29;20182;-66
2023/12/01 08:39:02;;;;;;;2.27;2.07;;;;;;;6.81;nan;-24007.13;4954965;29;20189;-65
2023/12/01 08:41:28;;;;;;;1.73;1.63;;;;;;;7.00;nan;-24010.66;4954819;29;20201;-64
2023/12/01 08:43:53;;;;;;;1.70;1.60;;;;;;;7.14;nan;-24014.34;4954582;29;20170;-65
2023/12/01 08:46:18;;;;;;;1.60;1.50;;;;;;;7.40;nan;-23704.72;4954649;29;20549;-66
2023/12/01 08:48:44;;;;;;;2.77;2.57;;;;;;;7.71;nan;-21492.44;4954470;29;20614;-65
2023/12/01 08:51:09;;;;;;;3.57;2.30;;;;;;;7.76;nan;-22128.41;4954254;29;20185;-64
2023/12/01 08:53:35;;;;;;;2.23;2.03;;;;;;;7.99;nan;-21499.22;4953998;29;20221;-65
2023/12/01 08:56:00;;;;;;;3.30;2.40;;;;;;;8.07;nan;-21500.91;4954354;29;20174;-65
2023/12/01 08:58:25;;;;;;;2.67;2.47;;;;;;;8.41;nan;-20555.75;4954143;29;20557;-64
2023/12/01 09:00:51;;;;;;;2.73;2.53;;;;;;;8.41;nan;-17057.66;4954057;29;20174;-65
2023/12/01 09:03:16;;;;;;;3.72;2.45;;;;;;;8.63;nan;-15469.50;4953693;29;20210;-63
2023/12/01 09:05:42;;;;;;;2.10;2.00;;;;;;;8.76;nan;-17700.19;4954017;29;20174;-64
2023/12/01 09:08:08;;;;;;;2.13;2.00;;;;;;;8.92;nan;-17384.47;4937299;29;20715;-63
2023/12/01 09:10:33;;;;;;;1.60;1.50;;;;;;;8.93;nan;-15792.19;4953971;29;20254;-64
2023/12/01 09:12:59;;;;;;;2.97;1.95;;;;;;;9.24;nan;-15478.06;4953779;29;20176;-63
2023/12/01 09:15:24;;;;;;;4.00;2.72;;;;;;;9.45;nan;-13248.09;4953956;28;20186;-64
2023/12/01 09:17:54;;;;;;;2.00;1.80;;;;;;;9.38;nan;-11651.66;4953840;29;20174;-65
2023/12/01 09:20:20;;;;;;;1.63;1.52;;;;;;;9.77;nan;-11015.84;4953933;28;20532;-64
2023/12/01 09:22:46;;;;;;;1.73;1.63;;;;;;;9.75;nan;-8778.63;4953925;28;20205;-64
2023/12/01 09:25:12;;;;;;;2.80;2.22;;;;;;;10.14;nan;-7820.00;4953853;29;20273;-64
2023/12/01 09:27:37;;;;;;;2.10;1.95;;;;;;;10.32;nan;-4297.53;4953528;29;20229;-64
2023/12/01 09:30:04;;;;;;;2.90;2.05;;;;;;;10.43;nan;-2694.25;4953879;29;20178;-63
2023/12/01 09:32:30;;;;;;;2.28;1.60;;;;;;;10.45;nan;-3335.34;4936303;29;20190;-64
2023/12/01 09:34:55;;;;;;;2.40;2.20;;;;;;;10.56;nan;-3975.94;4954087;29;20265;-63
2023/12/01 09:37:23;;;;;;;3.33;2.25;;;;;;;10.54;nan;-3334.81;4953604;29;20634;-64
2023/12/01 09:39:48;;;;;;;2.65;2.20;;;;;;;10.77;nan;2123.88;4953698;29;20189;-63
2023/12/01 09:42:14;;;;;;;3.47;2.28;;;;;;;10.84;nan;3088.94;4954160;29;20202;-63
2023/12/01 09:44:40;;;;;;;3.90;2.97;;;;;;;10.56;nan;4369.84;4953709;29;20182;-64
2023/12/01 09:47:10;;;;;;;1.60;1.50;;;;;;;10.34;nan;-3015.44;4953376;29;20251;-64
2023/12/01 09:49:35;;;;;;;2.65;2.45;;;;;;;10.21;nan;-4618.34;4954365;29;20713;-65
2023/12/01 09:52:02;;;;;;;3.42;2.40;;;;;;;10.21;nan;-6539.78;4953382;29;20261;-65
2023/12/01 09:54:28;;;;;;;3.00;2.28;;;;;;;10.46;nan;-7180.13;4953423;28;20227;-64
2023/12/01 09:56:57;;;;;;;2.00;1.75;;;;;;;10.39;nan;-8140.50;4953329;28;20170;-63
2023/12/01 09:59:22;;;;;;;2.53;2.33;;;;;;;10.53;nan;-10381.09;4953544;29;20205;-64
2023/12/01 10:01:48;;;;;;;2.10;1.90;;;;;;;10.52;nan;-8780.97;4953365;29;20300;-63
2023/12/01 10:04:14;;;;;;;2.58;2.30;;;;;;;10.51;nan;-9421.06;4954175;28;20182;-63
2023/12/01 10:06:40;;;;;;;2.17;1.98;;;;;;;10.37;nan;-9420.50;4953902;29;20178;-63
2023/12/01 10:09:10;;;;;;;2.55;1.90;;;;;;;10.49;nan;-9100.97;4954219;29;20186;-63
2023/12/01 10:11:36;;;;;;;2.05;1.90;;;;;;;10.53;nan;-8140.78;4953369;29;20171;-65
2023/12/01 10:14:08;;;;;;;3.03;2.67;;;;;;;10.63;nan;-8781.34;4953410;29;20535;-64
2023/12/01 10:16:35;;;;;;;2.45;2.13;;;;;;;10.40;nan;-7820.41;4934482;29;20581;-64
2023/12/01 10:19:04;;;;;;;1.85;1.75;;;;;;;10.59;nan;-8461.06;4953526;29;20185;-63
2023/12/01 10:21:43;;;;;;;2.65;1.75;;;;;;;10.46;nan;-8780.81;4953159;29;20634;-64
2023/12/01 10:24:35;;;;;;;2.22;1.77;;;;;;;10.42;nan;-11020.16;4953020;29;20174;-63
2023/12/01 10:27:05;;;;;;;1.58;1.48;;;;;;;10.39;nan;-11339.72;4949074;29;20198;-64
2023/12/01 10:29:30;;;;;;;1.67;1.58;;;;;;;10.18;nan;-12936.19;4952242;29;20688;-64
2023/12/01 10:32:02;;;;;;;2.08;1.95;;;;;;;10.22;nan;-13575.53;4952708;29;20198;-64
2023/12/01 10:34:28;;;;;;;4.82;2.40;;;;;;;10.08;nan;-12935.16;4952118;28;20182;-64
2023/12/01 10:36:54;;;;;;;2.25;2.05;;;;;;;9.64;nan;-14207.47;4953425;29;20188;-63
2023/12/01 10:39:25;;;;;;;2.05;1.95;;;;;;;9.70;nan;-14846.38;4952213;29;20547;-65
2023/12/01 10:41:50;;;;;;;2.30;2.15;;;;;;;9.55;nan;-14525.47;4952668;29;20197;-64
2023/12/01 10:44:17;;;;;;;3.85;1.90;;;;;;;9.40;nan;-15161.41;4952613;29;20185;-64
2023/12/01 10:46:46;;;;;;;2.03;1.85;;;;;;;9.44;nan;-15799.63;4952608;29;20249;-63
2023/12/01 10:49:15;;;;;;;2.53;1.77;;;;;;;9.22;nan;-17389.69;4951595;29;20260;-64
2023/12/01 10:51:43;;;;;;;1.95;1.85;;;;;;;9.22;nan;-18663.69;4950699;29;20174;-64
2023/12/01 10:54:15;;;;;;;2.85;2.30;;;;;;;9.48;nan;-18668.66;4950948;29;20225;-63
2023/12/01 10:56:43;;;;;;;2.85;2.50;;;;;;;9.76;nan;-17717.75;4950857;29;20178;-63
2023/12/01 10:59:13;;;;;;;3.92;2.03;;;;;;;9.85;nan;-17400.50;4950613;29;20570;-64
2023/12/01 11:01:39;;;;;;;2.00;1.90;;;;;;;9.85;nan;-17400.50;4950750;29;20236;-65
2023/12/01 11:04:08;;;;;;;2.30;2.10;;;;;;;9.97;nan;-16764.50;4951633;29;20177;-63
2023/12/01 11:06:52;;;;;;;1.85;1.75;;;;;;;10.18;nan;-16129.69;4953217;29;20178;-64
2023/12/01 11:09:48;;;;;;;2.33;2.13;;;;;;;10.32;nan;-15812.44;4936227;29;20178;-66
2023/12/01 11:12:36;;;;;;;2.40;2.13;;;;;;;10.20;nan;-15810.69;4953189;29;20718;-66
2023/12/01 11:15:16;;;;;;;2.65;2.05;;;;;;;10.22;nan;-15810.91;4952996;29;20216;-67
2023/12/01 11:17:42;;;;;;;2.28;1.85;;;;;;;10.18;nan;-15810.41;4953208;29;20538;-64
2023/12/01 11:20:42;;;;;;;2.65;2.10;;;;;;;10.21;nan;-15810.75;4953045;29;20182;-65
2023/12/01 11:23:11;;;;;;;1.92;1.80;;;;;;;10.10;nan;-16128.38;4951955;29;20204;-65
2023/12/01 11:25:43;;;;;;;1.75;1.65;;;;;;;10.10;nan;-16766.63;4953220;29;20174;-64
2023/12/01 11:28:46;;;;;;;1.88;1.77;;;;;;;10.09;nan;-16447.44;4952900;29;20189;-65
2023/12/01 11:31:15;;;;;;;1.83;1.73;;;;;;;9.87;nan;-17081.84;4953036;29;20318;-64
2023/12/01 11:33:47;;;;;;;1.17;1.17;;;;;;;9.67;nan;-17078.56;4952776;29;20170;-64
2023/12/01 11:36:19;;;;;;;2.42;2.17;;;;;;;9.84;nan;-16762.41;4953715;29;20232;-65
2023/12/01 11:41:49;;;;;;;3.55;2.15;;;;;;;9.49;nan;-18031.72;4952582;29;20297;-64
2023/12/01 11:44:17;;;;;;;2.42;2.10;;;;;;;9.46;nan;-18668.34;4935440;28;20260;-64
2023/12/01 11:46:44;;;;;;;3.42;2.63;;;;;;;9.20;nan;-19300.22;4955036;29;20654;-66
2023/12/01 11:49:10;;;;;;;1.95;1.77;;;;;;;9.36;nan;-19621.81;4955874;29;20185;-65
2023/12/01 11:51:35;;;;;;;1.67;1.58;;;;;;;9.72;nan;-19310.75;4955967;29;20186;-64
2023/12/01 11:54:02;;;;;;;2.05;1.75;;;;;;;9.68;nan;-18035.19;4935263;29;20265;-64